sensor_id;sensor_type;location;lat;lon;timestamp;pressure;altitude;pressure_sealevel;temperature;humidity
62374;BME280;48409;49.030;1.820;2023-01-16T00:01:11;98750.28;;;8.67;66.53
62374;BME280;48409;49.030;1.820;2023-01-16T00:03:37;98738.94;;;8.67;66.42
62374;BME280;48409;49.030;1.820;2023-01-16T00:06:02;98717.94;;;8.67;66.59
62374;BME280;48409;49.030;1.820;2023-01-16T00:08:28;98690.75;;;8.68;66.61
62374;BME280;48409;49.030;1.820;2023-01-16T00:10:53;98680.25;;;8.68;66.55
62374;BME280;48409;49.030;1.820;2023-01-16T00:13:19;98654.00;;;8.68;66.56
62374;BME280;48409;49.030;1.820;2023-01-16T00:15:46;98641.72;;;8.68;66.48
62374;BME280;48409;49.030;1.820;2023-01-16T00:18:12;98620.59;;;8.70;66.51
62374;BME280;48409;49.030;1.820;2023-01-16T00:20:37;98600.47;;;8.70;66.63
62374;BME280;48409;49.030;1.820;2023-01-16T00:23:02;98578.59;;;8.70;66.69
62374;BME280;48409;49.030;1.820;2023-01-16T00:25:38;98579.34;;;8.72;66.62
62374;BME280;48409;49.030;1.820;2023-01-16T00:28:04;98554.03;;;8.71;66.74
62374;BME280;48409;49.030;1.820;2023-01-16T00:30:31;98547.84;;;8.72;66.72
62374;BME280;48409;49.030;1.820;2023-01-16T00:33:04;98536.41;;;8.73;66.70
62374;BME280;48409;49.030;1.820;2023-01-16T00:35:31;98528.53;;;8.73;66.41
62374;BME280;48409;49.030;1.820;2023-01-16T00:37:56;98507.53;;;8.73;66.77
62374;BME280;48409;49.030;1.820;2023-01-16T00:40:22;98504.91;;;8.73;66.70
62374;BME280;48409;49.030;1.820;2023-01-16T00:42:53;98482.94;;;8.74;66.49
62374;BME280;48409;49.030;1.820;2023-01-16T00:45:18;98470.78;;;8.73;66.68
62374;BME280;48409;49.030;1.820;2023-01-16T00:47:44;98457.53;;;8.74;66.48
62374;BME280;48409;49.030;1.820;2023-01-16T00:50:10;98446.19;;;8.74;66.51
62374;BME280;48409;49.030;1.820;2023-01-16T00:55:08;98405.88;;;8.75;66.73
62374;BME280;48409;49.030;1.820;2023-01-16T00:57:37;98382.25;;;8.75;66.56
62374;BME280;48409;49.030;1.820;2023-01-16T01:00:03;98375.22;;;8.75;66.55
62374;BME280;48409;49.030;1.820;2023-01-16T01:02:29;98342.88;;;8.75;66.76
62374;BME280;48409;49.030;1.820;2023-01-16T01:04:54;98335.72;;;8.77;66.84
62374;BME280;48409;49.030;1.820;2023-01-16T01:07:19;98303.38;;;8.77;66.65
62374;BME280;48409;49.030;1.820;2023-01-16T01:09:52;98285.88;;;8.77;66.64
62374;BME280;48409;49.030;1.820;2023-01-16T01:12:18;98247.31;;;8.78;66.63
62374;BME280;48409;49.030;1.820;2023-01-16T01:14:43;98263.91;;;8.78;66.48
62374;BME280;48409;49.030;1.820;2023-01-16T01:17:09;98235.03;;;8.78;66.43
62374;BME280;48409;49.030;1.820;2023-01-16T01:19:35;98215.81;;;8.78;66.51
62374;BME280;48409;49.030;1.820;2023-01-16T01:22:00;98207.81;;;8.79;66.66
62374;BME280;48409;49.030;1.820;2023-01-16T01:24:26;98183.22;;;8.80;66.51
62374;BME280;48409;49.030;1.820;2023-01-16T01:26:51;98181.44;;;8.81;66.63
62374;BME280;48409;49.030;1.820;2023-01-16T01:29:16;98163.94;;;8.81;66.69
62374;BME280;48409;49.030;1.820;2023-01-16T01:31:42;98141.22;;;8.80;66.67
62374;BME280;48409;49.030;1.820;2023-01-16T01:34:07;98109.72;;;8.80;66.48
62374;BME280;48409;49.030;1.820;2023-01-16T01:36:35;98100.94;;;8.81;66.64
62374;BME280;48409;49.030;1.820;2023-01-16T01:39:00;98081.59;;;8.82;66.56
62374;BME280;48409;49.030;1.820;2023-01-16T01:41:26;98068.47;;;8.82;66.71
62374;BME280;48409;49.030;1.820;2023-01-16T01:43:54;98065.84;;;8.82;66.71
62374;BME280;48409;49.030;1.820;2023-01-16T01:48:58;98017.50;;;8.85;66.79
62374;BME280;48409;49.030;1.820;2023-01-16T01:51:35;98014.03;;;8.84;66.79
62374;BME280;48409;49.030;1.820;2023-01-16T01:54:08;97983.50;;;8.83;66.75
62374;BME280;48409;49.030;1.820;2023-01-16T01:56:57;97976.34;;;8.85;66.71
62374;BME280;48409;49.030;1.820;2023-01-16T01:59:27;97957.13;;;8.85;66.75
62374;BME280;48409;49.030;1.820;2023-01-16T02:01:55;97926.59;;;8.84;66.68
62374;BME280;48409;49.030;1.820;2023-01-16T02:04:25;97919.53;;;8.84;66.56
62374;BME280;48409;49.030;1.820;2023-01-16T02:06:55;97917.75;;;8.85;66.91
62374;BME280;48409;49.030;1.820;2023-01-16T02:09:23;97911.66;;;8.84;66.61
62374;BME280;48409;49.030;1.820;2023-01-16T02:11:53;97895.09;;;8.84;66.65
62374;BME280;48409;49.030;1.820;2023-01-16T02:14:19;97887.91;;;8.86;66.81
62374;BME280;48409;49.030;1.820;2023-01-16T02:16:46;97895.78;;;8.86;66.80
62374;BME280;48409;49.030;1.820;2023-01-16T02:36:15;97844.25;;;8.85;66.72
62374;BME280;48409;49.030;1.820;2023-01-16T02:41:59;97798.78;;;8.84;66.64
62374;BME280;48409;49.030;1.820;2023-01-16T02:44:53;97794.50;;;8.83;66.76
62374;BME280;48409;49.030;1.820;2023-01-16T02:53:25;97787.59;;;8.82;66.90
62374;BME280;48409;49.030;1.820;2023-01-16T02:56:04;97791.19;;;8.81;66.81
62374;BME280;48409;49.030;1.820;2023-01-16T02:58:38;97764.97;;;8.81;66.78
62374;BME280;48409;49.030;1.820;2023-01-16T03:01:06;97755.25;;;8.82;66.67
62374;BME280;48409;49.030;1.820;2023-01-16T03:03:49;97743.97;;;8.81;66.70
62374;BME280;48409;49.030;1.820;2023-01-16T03:06:44;97740.38;;;8.82;66.82
62374;BME280;48409;49.030;1.820;2023-01-16T03:09:34;97746.59;;;8.81;66.85
62374;BME280;48409;49.030;1.820;2023-01-16T03:14:48;97717.72;;;8.81;66.59
62374;BME280;48409;49.030;1.820;2023-01-16T03:20:20;97679.28;;;8.80;66.70
62374;BME280;48409;49.030;1.820;2023-01-16T03:22:59;97665.47;;;8.78;66.58
62374;BME280;48409;49.030;1.820;2023-01-16T03:26:02;97662.72;;;8.80;66.72
62374;BME280;48409;49.030;1.820;2023-01-16T03:28:41;97648.06;;;8.77;66.71
62374;BME280;48409;49.030;1.820;2023-01-16T03:31:15;97634.97;;;8.77;66.63
62374;BME280;48409;49.030;1.820;2023-01-16T03:34:04;97608.00;;;8.75;66.64
62374;BME280;48409;49.030;1.820;2023-01-16T03:36:56;97593.91;;;8.76;66.62
62374;BME280;48409;49.030;1.820;2023-01-16T03:39:32;97590.59;;;8.74;66.70
62374;BME280;48409;49.030;1.820;2023-01-16T03:42:03;97580.94;;;8.74;66.54
62374;BME280;48409;49.030;1.820;2023-01-16T03:44:35;97578.16;;;8.76;66.65
62374;BME280;48409;49.030;1.820;2023-01-16T03:47:06;97567.81;;;8.74;66.75
62374;BME280;48409;49.030;1.820;2023-01-16T03:49:38;97571.25;;;8.75;66.76
62374;BME280;48409;49.030;1.820;2023-01-16T03:52:11;97559.94;;;8.74;66.63
62374;BME280;48409;49.030;1.820;2023-01-16T03:55:02;97565.19;;;8.74;66.76
62374;BME280;48409;49.030;1.820;2023-01-16T03:57:38;97552.22;;;8.73;66.68
62374;BME280;48409;49.030;1.820;2023-01-16T04:00:08;97557.47;;;8.73;66.80
62374;BME280;48409;49.030;1.820;2023-01-16T04:02:44;97549.44;;;8.74;66.76
62374;BME280;48409;49.030;1.820;2023-01-16T04:05:31;97545.84;;;8.75;66.69
62374;BME280;48409;49.030;1.820;2023-01-16T04:08:02;97540.59;;;8.75;66.57
62374;BME280;48409;49.030;1.820;2023-01-16T04:10:33;97550.25;;;8.75;66.66
62374;BME280;48409;49.030;1.820;2023-01-16T04:13:04;97531.91;;;8.75;66.63
62374;BME280;48409;49.030;1.820;2023-01-16T04:15:32;97517.13;;;8.74;66.76
62374;BME280;48409;49.030;1.820;2023-01-16T04:17:59;97520.72;;;8.73;66.85
62374;BME280;48409;49.030;1.820;2023-01-16T04:20:25;97511.88;;;8.74;66.60
62374;BME280;48409;49.030;1.820;2023-01-16T04:22:52;97488.38;;;8.72;66.94
62374;BME280;48409;49.030;1.820;2023-01-16T04:25:19;97493.63;;;8.72;66.62
62374;BME280;48409;49.030;1.820;2023-01-16T04:27:44;97499.03;;;8.71;66.67
62374;BME280;48409;49.030;1.820;2023-01-16T04:30:10;97488.53;;;8.71;66.69
62374;BME280;48409;49.030;1.820;2023-01-16T04:32:36;97473.75;;;8.70;66.75
62374;BME280;48409;49.030;1.820;2023-01-16T04:35:01;97469.34;;;8.70;66.59
62374;BME280;48409;49.030;1.820;2023-01-16T04:37:27;97458.97;;;8.69;66.70
62374;BME280;48409;49.030;1.820;2023-01-16T04:39:53;97451.09;;;8.69;66.72
62374;BME280;48409;49.030;1.820;2023-01-16T04:42:18;97430.13;;;8.69;66.65
62374;BME280;48409;49.030;1.820;2023-01-16T04:44:47;97431.78;;;8.70;66.69
62374;BME280;48409;49.030;1.820;2023-01-16T04:47:13;97420.44;;;8.69;66.66
62374;BME280;48409;49.030;1.820;2023-01-16T04:49:38;97409.13;;;8.69;66.67
62374;BME280;48409;49.030;1.820;2023-01-16T04:52:04;97402.22;;;8.68;66.55
62374;BME280;48409;49.030;1.820;2023-01-16T04:54:29;97392.41;;;8.70;66.63
62374;BME280;48409;49.030;1.820;2023-01-16T04:56:55;97395.03;;;8.70;66.72
62374;BME280;48409;49.030;1.820;2023-01-16T04:59:20;97393.25;;;8.70;66.57
62374;BME280;48409;49.030;1.820;2023-01-16T05:01:46;97379.28;;;8.70;66.73
62374;BME280;48409;49.030;1.820;2023-01-16T05:04:14;97365.19;;;8.71;66.56
62374;BME280;48409;49.030;1.820;2023-01-16T05:06:40;97364.38;;;8.70;66.81
62374;BME280;48409;49.030;1.820;2023-01-16T05:09:06;97366.16;;;8.70;66.73
62374;BME280;48409;49.030;1.820;2023-01-16T05:11:32;97358.28;;;8.70;66.67
62374;BME280;48409;49.030;1.820;2023-01-16T05:13:58;97338.94;;;8.71;66.69
62374;BME280;48409;49.030;1.820;2023-01-16T05:16:24;97333.03;;;8.69;66.57
62374;BME280;48409;49.030;1.820;2023-01-16T05:18:49;97330.28;;;8.70;66.69
62374;BME280;48409;49.030;1.820;2023-01-16T05:21:15;97316.31;;;8.70;66.67
62374;BME280;48409;49.030;1.820;2023-01-16T05:23:40;97312.72;;;8.71;66.60
62374;BME280;48409;49.030;1.820;2023-01-16T05:26:05;97296.16;;;8.70;66.72
62374;BME280;48409;49.030;1.820;2023-01-16T05:28:32;97293.69;;;8.69;66.52
62374;BME280;48409;49.030;1.820;2023-01-16T05:31:00;97285.66;;;8.70;66.62
62374;BME280;48409;49.030;1.820;2023-01-16T05:33:25;97284.81;;;8.70;66.61
62374;BME280;48409;49.030;1.820;2023-01-16T05:35:51;97267.44;;;8.69;66.69
62374;BME280;48409;49.030;1.820;2023-01-16T05:38:17;97259.44;;;8.70;66.59
62374;BME280;48409;49.030;1.820;2023-01-16T05:40:43;97272.69;;;8.69;66.48
62374;BME280;48409;49.030;1.820;2023-01-16T05:43:09;97264.13;;;8.67;66.68
62374;BME280;48409;49.030;1.820;2023-01-16T05:45:35;97246.44;;;8.69;66.60
62374;BME280;48409;49.030;1.820;2023-01-16T05:48:00;97233.47;;;8.67;66.51
62374;BME280;48409;49.030;1.820;2023-01-16T05:50:26;97232.63;;;8.67;66.52
62374;BME280;48409;49.030;1.820;2023-01-16T05:52:51;97232.63;;;8.67;66.60
62374;BME280;48409;49.030;1.820;2023-01-16T05:55:17;97224.94;;;8.65;66.60
62374;BME280;48409;49.030;1.820;2023-01-16T05:57:42;97224.09;;;8.65;66.47
62374;BME280;48409;49.030;1.820;2023-01-16T06:00:08;97219.50;;;8.67;66.73
62374;BME280;48409;49.030;1.820;2023-01-16T06:02:34;97210.00;;;8.66;66.69
62374;BME280;48409;49.030;1.820;2023-01-16T06:04:59;97210.97;;;8.65;66.76
62374;BME280;48409;49.030;1.820;2023-01-16T06:07:25;97210.00;;;8.66;66.53
62374;BME280;48409;49.030;1.820;2023-01-16T06:09:51;97194.25;;;8.66;66.55
62374;BME280;48409;49.030;1.820;2023-01-16T06:12:17;97187.34;;;8.65;66.54
62374;BME280;48409;49.030;1.820;2023-01-16T06:14:44;97189.00;;;8.66;66.75
62374;BME280;48409;49.030;1.820;2023-01-16T06:17:10;97183.75;;;8.66;66.66
62374;BME280;48409;49.030;1.820;2023-01-16T06:19:35;97171.47;;;8.66;66.83
62374;BME280;48409;49.030;1.820;2023-01-16T06:22:01;97155.88;;;8.65;66.71
62374;BME280;48409;49.030;1.820;2023-01-16T06:24:26;97151.47;;;8.65;66.67
62374;BME280;48409;49.030;1.820;2023-01-16T06:26:52;97140.13;;;8.65;66.73
62374;BME280;48409;49.030;1.820;2023-01-16T06:29:17;97141.78;;;8.66;66.71
62374;BME280;48409;49.030;1.820;2023-01-16T06:31:43;97145.38;;;8.65;66.63
62374;BME280;48409;49.030;1.820;2023-01-16T06:34:08;97134.03;;;8.64;66.71
62374;BME280;48409;49.030;1.820;2023-01-16T06:36:34;97133.25;;;8.64;66.57
62374;BME280;48409;49.030;1.820;2023-01-16T06:38:59;97126.31;;;8.62;66.61
62374;BME280;48409;49.030;1.820;2023-01-16T06:41:25;97114.19;;;8.61;66.63
62374;BME280;48409;49.030;1.820;2023-01-16T06:43:50;97110.56;;;8.62;66.45
62374;BME280;48409;49.030;1.820;2023-01-16T06:46:16;97104.53;;;8.62;66.64
62374;BME280;48409;49.030;1.820;2023-01-16T06:48:41;97075.81;;;8.60;66.67
62374;BME280;48409;49.030;1.820;2023-01-16T06:51:09;97084.66;;;8.59;66.64
62374;BME280;48409;49.030;1.820;2023-01-16T06:53:35;97062.69;;;8.60;66.60
62374;BME280;48409;49.030;1.820;2023-01-16T06:56:01;97068.78;;;8.61;66.62
62374;BME280;48409;49.030;1.820;2023-01-16T06:58:27;97061.72;;;8.61;66.43
62374;BME280;48409;49.030;1.820;2023-01-16T07:00:52;97054.81;;;8.60;66.51
62374;BME280;48409;49.030;1.820;2023-01-16T07:03:19;97035.47;;;8.61;66.55
62374;BME280;48409;49.030;1.820;2023-01-16T07:05:46;97045.97;;;8.61;66.54
62374;BME280;48409;49.030;1.820;2023-01-16T07:08:11;97031.06;;;8.62;66.74
62374;BME280;48409;49.030;1.820;2023-01-16T07:10:37;97019.75;;;8.61;66.69
62374;BME280;48409;49.030;1.820;2023-01-16T07:13:02;97011.06;;;8.61;66.74
62374;BME280;48409;49.030;1.820;2023-01-16T07:15:36;97004.00;;;8.61;66.62
62374;BME280;48409;49.030;1.820;2023-01-16T07:18:21;97002.34;;;8.60;66.65
62374;BME280;48409;49.030;1.820;2023-01-16T07:21:09;96984.66;;;8.62;66.54
62374;BME280;48409;49.030;1.820;2023-01-16T07:24:04;96986.63;;;8.60;66.54
62374;BME280;48409;49.030;1.820;2023-01-16T07:26:31;96977.91;;;8.60;66.54
62374;BME280;48409;49.030;1.820;2023-01-16T07:28:58;96977.09;;;8.59;66.57
62374;BME280;48409;49.030;1.820;2023-01-16T07:31:24;96965.63;;;8.60;66.68
62374;BME280;48409;49.030;1.820;2023-01-16T07:33:52;96957.75;;;8.60;66.59
62374;BME280;48409;49.030;1.820;2023-01-16T07:36:19;96944.63;;;8.60;66.59
62374;BME280;48409;49.030;1.820;2023-01-16T07:38:44;96935.13;;;8.59;66.50
62374;BME280;48409;49.030;1.820;2023-01-16T07:41:10;96931.53;;;8.60;66.68
62374;BME280;48409;49.030;1.820;2023-01-16T07:43:35;96928.91;;;8.60;66.66
62374;BME280;48409;49.030;1.820;2023-01-16T07:46:01;96916.78;;;8.59;66.63
62374;BME280;48409;49.030;1.820;2023-01-16T07:48:26;96915.78;;;8.60;66.75
62374;BME280;48409;49.030;1.820;2023-01-16T07:50:53;96913.16;;;8.60;66.53
62374;BME280;48409;49.030;1.820;2023-01-16T07:53:20;96930.53;;;8.61;66.46
62374;BME280;48409;49.030;1.820;2023-01-16T07:55:52;96917.44;;;8.61;66.67
62374;BME280;48409;49.030;1.820;2023-01-16T07:58:18;96914.00;;;8.61;66.75
62374;BME280;48409;49.030;1.820;2023-01-16T08:00:45;96915.63;;;8.62;66.84
62374;BME280;48409;49.030;1.820;2023-01-16T08:03:11;96905.94;;;8.62;66.66
62374;BME280;48409;49.030;1.820;2023-01-16T08:05:36;96907.91;;;8.60;66.60
62374;BME280;48409;49.030;1.820;2023-01-16T08:08:02;96899.91;;;8.62;66.55
62374;BME280;48409;49.030;1.820;2023-01-16T08:10:28;96903.31;;;8.62;66.50
62374;BME280;48409;49.030;1.820;2023-01-16T08:12:54;96898.91;;;8.63;66.59
62374;BME280;48409;49.030;1.820;2023-01-16T08:15:19;96901.69;;;8.61;66.67
62374;BME280;48409;49.030;1.820;2023-01-16T08:17:45;96896.28;;;8.63;66.80
62374;BME280;48409;49.030;1.820;2023-01-16T08:20:10;96903.19;;;8.64;66.54
62374;BME280;48409;49.030;1.820;2023-01-16T08:22:42;96910.25;;;8.64;66.62
62374;BME280;48409;49.030;1.820;2023-01-16T08:25:08;96896.28;;;8.63;66.53
62374;BME280;48409;49.030;1.820;2023-01-16T08:27:33;96918.94;;;8.64;66.59
62374;BME280;48409;49.030;1.820;2023-01-16T08:29:59;96919.06;;;8.62;66.74
62374;BME280;48409;49.030;1.820;2023-01-16T08:32:24;96922.53;;;8.63;66.62
62374;BME280;48409;49.030;1.820;2023-01-16T08:34:50;96939.09;;;8.64;66.72
62374;BME280;48409;49.030;1.820;2023-01-16T08:37:15;96940.06;;;8.62;66.75
62374;BME280;48409;49.030;1.820;2023-01-16T08:39:40;96946.97;;;8.64;66.74
62374;BME280;48409;49.030;1.820;2023-01-16T08:42:06;96939.09;;;8.64;66.73
62374;BME280;48409;49.030;1.820;2023-01-16T08:44:50;96952.22;;;8.64;66.80
62374;BME280;48409;49.030;1.820;2023-01-16T08:47:35;96963.66;;;8.62;66.76
62374;BME280;48409;49.030;1.820;2023-01-16T08:50:27;96973.50;;;8.60;66.73
62374;BME280;48409;49.030;1.820;2023-01-16T08:53:11;96986.63;;;8.60;66.66
62374;BME280;48409;49.030;1.820;2023-01-16T08:55:37;96981.38;;;8.60;66.78
62374;BME280;48409;49.030;1.820;2023-01-16T08:58:04;96988.53;;;8.58;66.87
62374;BME280;48409;49.030;1.820;2023-01-16T09:00:31;97002.50;;;8.59;66.85
62374;BME280;48409;49.030;1.820;2023-01-16T09:02:56;97013.81;;;8.59;66.67
62374;BME280;48409;49.030;1.820;2023-01-16T09:05:25;97024.31;;;8.59;66.81
62374;BME280;48409;49.030;1.820;2023-01-16T09:07:50;97024.47;;;8.58;66.72
62374;BME280;48409;49.030;1.820;2023-01-16T09:10:16;97035.75;;;8.58;66.67
62374;BME280;48409;49.030;1.820;2023-01-16T09:12:42;97044.63;;;8.57;66.81
62374;BME280;48409;49.030;1.820;2023-01-16T09:15:25;97072.50;;;8.58;66.67
62374;BME280;48409;49.030;1.820;2023-01-16T09:17:51;97079.69;;;8.56;66.84
62374;BME280;48409;49.030;1.820;2023-01-16T09:20:16;97084.94;;;8.56;66.86
62374;BME280;48409;49.030;1.820;2023-01-16T09:22:42;97095.44;;;8.56;66.86
62374;BME280;48409;49.030;1.820;2023-01-16T09:25:08;97102.63;;;8.54;66.92
62374;BME280;48409;49.030;1.820;2023-01-16T09:27:33;97120.03;;;8.55;66.63
62374;BME280;48409;49.030;1.820;2023-01-16T09:29:59;97126.06;;;8.56;66.82
62374;BME280;48409;49.030;1.820;2023-01-16T09:32:25;97129.53;;;8.56;66.71
62374;BME280;48409;49.030;1.820;2023-01-16T09:34:50;97132.16;;;8.56;66.72
62374;BME280;48409;49.030;1.820;2023-01-16T09:37:16;97144.28;;;8.57;66.87
62374;BME280;48409;49.030;1.820;2023-01-16T09:39:42;97160.03;;;8.57;66.77
62374;BME280;48409;49.030;1.820;2023-01-16T09:45:18;97169.41;;;8.60;66.96
62374;BME280;48409;49.030;1.820;2023-01-16T09:47:54;97180.03;;;8.58;66.75
62374;BME280;48409;49.030;1.820;2023-01-16T09:50:34;97177.44;;;8.58;66.99
62374;BME280;48409;49.030;1.820;2023-01-16T09:53:03;97194.84;;;8.59;66.87
62374;BME280;48409;49.030;1.820;2023-01-16T09:55:49;97187.91;;;8.58;66.75
62374;BME280;48409;49.030;1.820;2023-01-16T09:58:38;97211.38;;;8.60;66.89
62374;BME280;48409;49.030;1.820;2023-01-16T10:01:09;97213.22;;;8.59;67.04
62374;BME280;48409;49.030;1.820;2023-01-16T10:03:40;97229.88;;;8.58;66.89
62374;BME280;48409;49.030;1.820;2023-01-16T10:06:55;97235.13;;;8.58;66.91
62374;BME280;48409;49.030;1.820;2023-01-16T10:12:09;97286.78;;;8.58;66.72
62374;BME280;48409;49.030;1.820;2023-01-16T10:17:40;97303.66;;;8.55;66.91
62374;BME280;48409;49.030;1.820;2023-01-16T10:26:10;97345.88;;;8.52;66.82
62374;BME280;48409;49.030;1.820;2023-01-16T10:28:55;97366.84;;;8.52;66.94
62374;BME280;48409;49.030;1.820;2023-01-16T10:31:24;97375.69;;;8.51;67.09
62374;BME280;48409;49.030;1.820;2023-01-16T10:34:35;97395.03;;;8.50;66.89
62374;BME280;48409;49.030;1.820;2023-01-16T10:37:03;97398.59;;;8.49;67.00
62374;BME280;48409;49.030;1.820;2023-01-16T10:39:35;97410.78;;;8.50;66.98
62374;BME280;48409;49.030;1.820;2023-01-16T10:45:09;97431.75;;;8.50;66.87
62374;BME280;48409;49.030;1.820;2023-01-16T10:47:55;97426.78;;;8.47;67.01
62374;BME280;48409;49.030;1.820;2023-01-16T10:50:39;97426.78;;;8.47;66.90
62374;BME280;48409;49.030;1.820;2023-01-16T10:53:08;97452.16;;;8.46;66.91
62374;BME280;48409;49.030;1.820;2023-01-16T10:55:36;97465.41;;;8.45;66.86
62374;BME280;48409;49.030;1.820;2023-01-16T10:58:08;97451.47;;;8.44;67.14
62374;BME280;48409;49.030;1.820;2023-01-16T11:00:41;97483.78;;;8.45;67.08
62374;BME280;48409;49.030;1.820;2023-01-16T11:03:18;97491.50;;;8.46;66.84
62374;BME280;48409;49.030;1.820;2023-01-16T11:05:44;97497.59;;;8.47;67.10
62374;BME280;48409;49.030;1.820;2023-01-16T11:08:18;97514.31;;;8.46;67.10
62374;BME280;48409;49.030;1.820;2023-01-16T11:10:45;97518.72;;;8.45;67.17
62374;BME280;48409;49.030;1.820;2023-01-16T11:13:24;97530.84;;;8.46;67.15
62374;BME280;48409;49.030;1.820;2023-01-16T11:18:57;97549.34;;;8.45;67.21
62374;BME280;48409;49.030;1.820;2023-01-16T11:21:28;97559.84;;;8.45;67.02
62374;BME280;48409;49.030;1.820;2023-01-16T11:24:00;97565.09;;;8.45;67.21
62374;BME280;48409;49.030;1.820;2023-01-16T11:26:29;97572.81;;;8.46;66.97
62374;BME280;48409;49.030;1.820;2023-01-16T11:28:56;97567.56;;;8.46;67.01
62374;BME280;48409;49.030;1.820;2023-01-16T11:31:28;97584.16;;;8.47;67.08
62374;BME280;48409;49.030;1.820;2023-01-16T11:34:13;97599.91;;;8.47;67.03
62374;BME280;48409;49.030;1.820;2023-01-16T11:36:40;97619.22;;;8.46;67.21
62374;BME280;48409;49.030;1.820;2023-01-16T11:39:18;97621.84;;;8.46;67.22
62374;BME280;48409;49.030;1.820;2023-01-16T11:41:48;97626.13;;;8.47;67.25
62374;BME280;48409;49.030;1.820;2023-01-16T11:44:19;97647.78;;;8.49;67.24
62374;BME280;48409;49.030;1.820;2023-01-16T11:47:04;97644.34;;;8.48;67.08
62374;BME280;48409;49.030;1.820;2023-01-16T11:49:36;97653.88;;;8.49;66.97
62374;BME280;48409;49.030;1.820;2023-01-16T11:52:12;97654.00;;;8.48;67.29
62374;BME280;48409;49.030;1.820;2023-01-16T11:54:38;97667.00;;;8.49;66.94
62374;BME280;48409;49.030;1.820;2023-01-16T11:57:43;97669.75;;;8.48;67.09
62374;BME280;48409;49.030;1.820;2023-01-16T12:00:14;97680.25;;;8.48;66.95
62374;BME280;48409;49.030;1.820;2023-01-16T12:05:37;97680.25;;;8.48;67.18
62374;BME280;48409;49.030;1.820;2023-01-16T12:11:07;97684.81;;;8.46;67.06
62374;BME280;48409;49.030;1.820;2023-01-16T12:21:55;97718.91;;;8.46;67.12
62374;BME280;48409;49.030;1.820;2023-01-16T12:28:21;97727.59;;;8.46;67.13
62374;BME280;48409;49.030;1.820;2023-01-16T12:58:30;97774.63;;;8.38;66.93
62374;BME280;48409;49.030;1.820;2023-01-16T13:01:24;97779.75;;;8.40;67.11
62374;BME280;48409;49.030;1.820;2023-01-16T13:04:11;97764.97;;;8.39;67.27
62374;BME280;48409;49.030;1.820;2023-01-16T13:06:56;97808.59;;;8.40;67.34
62374;BME280;48409;49.030;1.820;2023-01-16T13:09:29;97812.19;;;8.39;67.15
62374;BME280;48409;49.030;1.820;2023-01-16T13:14:50;97803.34;;;8.40;67.32
62374;BME280;48409;49.030;1.820;2023-01-16T13:17:25;97802.53;;;8.39;67.25
62374;BME280;48409;49.030;1.820;2023-01-16T13:19:52;97808.88;;;8.36;67.27
62374;BME280;48409;49.030;1.820;2023-01-16T13:22:23;97820.16;;;8.37;67.19
62374;BME280;48409;49.030;1.820;2023-01-16T13:24:57;97815.78;;;8.38;67.09
62374;BME280;48409;49.030;1.820;2023-01-16T13:27:45;97830.53;;;8.39;67.15
62374;BME280;48409;49.030;1.820;2023-01-16T13:30:16;97823.50;;;8.39;67.10
62374;BME280;48409;49.030;1.820;2023-01-16T13:32:46;97832.19;;;8.40;67.08
62374;BME280;48409;49.030;1.820;2023-01-16T13:35:25;97853.91;;;8.42;67.18
62374;BME280;48409;49.030;1.820;2023-01-16T13:39:07;97849.59;;;8.41;67.10
62374;BME280;48409;49.030;1.820;2023-01-16T13:41:23;97857.47;;;8.41;67.19
62374;BME280;48409;49.030;1.820;2023-01-16T13:43:53;97859.16;;;8.42;67.21
62374;BME280;48409;49.030;1.820;2023-01-16T13:46:39;97867.94;;;8.41;67.10
62374;BME280;48409;49.030;1.820;2023-01-16T13:49:06;97875.00;;;8.40;67.25
62374;BME280;48409;49.030;1.820;2023-01-16T13:51:44;97882.03;;;8.40;67.06
62374;BME280;48409;49.030;1.820;2023-01-16T13:54:19;97884.53;;;8.41;67.13
62374;BME280;48409;49.030;1.820;2023-01-16T13:56:58;97907.19;;;8.42;67.15
62374;BME280;48409;49.030;1.820;2023-01-16T13:59:38;97918.50;;;8.43;67.19
62374;BME280;48409;49.030;1.820;2023-01-16T14:02:41;97907.19;;;8.42;67.03
62374;BME280;48409;49.030;1.820;2023-01-16T14:05:22;97926.50;;;8.41;66.97
62374;BME280;48409;49.030;1.820;2023-01-16T14:15:56;97945.00;;;8.40;67.18
62374;BME280;48409;49.030;1.820;2023-01-16T14:21:24;97963.47;;;8.38;67.15
62374;BME280;48409;49.030;1.820;2023-01-16T14:24:00;97957.41;;;8.38;67.31
62374;BME280;48409;49.030;1.820;2023-01-16T14:29:00;97974.81;;;8.39;67.08
62374;BME280;48409;49.030;1.820;2023-01-16T14:31:36;97974.81;;;8.39;67.14
62374;BME280;48409;49.030;1.820;2023-01-16T14:34:02;97987.81;;;8.40;66.98
62374;BME280;48409;49.030;1.820;2023-01-16T14:36:28;97984.22;;;8.41;67.18
62374;BME280;48409;49.030;1.820;2023-01-16T14:38:58;97999.09;;;8.41;67.12
62374;BME280;48409;49.030;1.820;2023-01-16T14:41:30;98001.63;;;8.42;66.99
62374;BME280;48409;49.030;1.820;2023-01-16T14:44:19;97994.72;;;8.41;67.19
62374;BME280;48409;49.030;1.820;2023-01-16T14:47:32;98000.81;;;8.42;67.00
62374;BME280;48409;49.030;1.820;2023-01-16T14:50:17;98006.97;;;8.41;67.14
62374;BME280;48409;49.030;1.820;2023-01-16T14:55:58;98017.63;;;8.39;67.10
62374;BME280;48409;49.030;1.820;2023-01-16T15:02:02;98030.84;;;8.38;66.92
62374;BME280;48409;49.030;1.820;2023-01-16T15:04:22;98046.81;;;8.34;66.87
62374;BME280;48409;49.030;1.820;2023-01-16T15:06:54;98045.97;;;8.34;67.09
62374;BME280;48409;49.030;1.820;2023-01-16T15:09:20;98046.81;;;8.34;67.06
62374;BME280;48409;49.030;1.820;2023-01-16T15:12:08;98051.22;;;8.34;67.16
62374;BME280;48409;49.030;1.820;2023-01-16T15:14:34;98055.66;;;8.33;66.92
62374;BME280;48409;49.030;1.820;2023-01-16T15:17:49;98056.47;;;8.34;67.10
62374;BME280;48409;49.030;1.820;2023-01-16T15:20:27;98059.25;;;8.32;66.83
62374;BME280;48409;49.030;1.820;2023-01-16T15:23:33;98057.56;;;8.31;67.06
62374;BME280;48409;49.030;1.820;2023-01-16T15:33:45;98070.19;;;8.26;66.87
62374;BME280;48409;49.030;1.820;2023-01-16T15:36:16;98080.69;;;8.26;67.04
62374;BME280;48409;49.030;1.820;2023-01-16T15:38:51;98073.91;;;8.23;66.93
62374;BME280;48409;49.030;1.820;2023-01-16T15:41:19;98071.38;;;8.22;66.92
62374;BME280;48409;49.030;1.820;2023-01-16T15:44:10;98076.63;;;8.22;67.03
62374;BME280;48409;49.030;1.820;2023-01-16T15:52:08;98100.84;;;8.14;66.95